Time;durP1;ratioP1;P1;durP2;ratioP2;P2;SDS_P1;SDS_P2;PMS_P1;PMS_P2;Temp;Humidity;BMP_temperature;BMP_pressure;BME280_temperature;BME280_humidity;BME280_pressure;Samples;Min_cycle;Max_cycle;Signal;HPM_P1;HPM_P2
2023/08/12 00:01:35;;;;;;;2.33;1.60;;;;;;;28.46;32.19;96971.38;5016178;28;20436;-29
2023/08/12 00:04:01;;;;;;;2.25;1.42;;;;;;;28.76;32.17;96971.13;5019303;28;20385;-28
2023/08/12 00:06:28;;;;;;;1.50;1.40;;;;;;;28.61;32.69;96966.06;5020717;28;20018;-28
2023/08/12 00:08:53;;;;;;;1.85;1.50;;;;;;;28.68;32.18;96968.22;5026838;28;20079;-28
2023/08/12 00:11:18;;;;;;;1.80;1.17;;;;;;;28.62;32.30;96970.34;5021191;28;20022;-28
2023/08/12 00:13:44;;;;;;;3.00;1.20;;;;;;;28.42;32.45;96970.97;5027889;28;20021;-28
2023/08/12 00:16:09;;;;;;;1.60;1.50;;;;;;;28.48;32.40;96954.88;5025572;28;20036;-29
2023/08/12 00:18:36;;;;;;;1.33;1.23;;;;;;;28.55;32.46;96957.03;5023615;28;20028;-29
2023/08/12 00:21:12;;;;;;;3.85;1.67;;;;;;;28.52;32.61;96953.28;5014054;28;20111;-29
2023/08/12 00:23:40;;;;;;;3.28;1.40;;;;;;;28.50;32.55;96950.25;5027828;28;20340;-28
2023/08/12 00:26:06;;;;;;;2.70;1.40;;;;;;;28.52;32.18;96952.53;5023332;28;20160;-29
2023/08/12 00:28:32;;;;;;;3.40;1.42;;;;;;;28.49;32.50;96954.34;5023706;28;20048;-28
2023/08/12 00:30:57;;;;;;;2.20;1.55;;;;;;;28.49;32.38;96954.34;5014399;28;20107;-29
2023/08/12 00:33:23;;;;;;;2.47;1.80;;;;;;;28.54;32.16;96952.75;5021215;28;20018;-28
2023/08/12 00:35:48;;;;;;;1.90;1.40;;;;;;;28.46;32.29;96949.81;5020622;28;20070;-28
2023/08/12 00:38:13;;;;;;;1.70;1.40;;;;;;;28.51;32.01;96951.78;5014510;28;20501;-29
2023/08/12 00:40:39;;;;;;;1.30;1.20;;;;;;;28.52;32.15;96944.16;5025614;28;20018;-29
2023/08/12 00:43:04;;;;;;;1.50;1.20;;;;;;;28.51;31.67;96943.41;5020697;28;20041;-29
2023/08/12 00:45:30;;;;;;;1.60;1.50;;;;;;;28.49;31.91;96948.00;5020650;28;20026;-28
2023/08/12 00:47:56;;;;;;;2.00;1.50;;;;;;;28.44;32.00;96946.81;5020231;28;20102;-29
2023/08/12 00:50:21;;;;;;;1.88;1.33;;;;;;;28.23;31.68;96949.47;5015479;28;20062;-29
2023/08/12 00:52:47;;;;;;;1.40;1.30;;;;;;;28.36;31.32;96945.19;5019011;28;20030;-29
2023/08/12 00:55:13;;;;;;;1.20;1.10;;;;;;;28.50;31.38;96941.88;5019386;28;20095;-30
2023/08/12 00:57:39;;;;;;;1.70;1.40;;;;;;;28.52;31.24;96947.69;5023547;28;20026;-29
2023/08/12 01:00:05;;;;;;;1.63;1.30;;;;;;;28.29;31.42;96940.25;5017305;28;20025;-28
2023/08/12 01:02:31;;;;;;;2.17;1.30;;;;;;;28.34;30.79;96934.56;5020011;28;20034;-29
2023/08/12 01:04:58;;;;;;;1.40;1.27;;;;;;;28.35;31.01;96933.28;5020772;28;20109;-30
2023/08/12 01:07:23;;;;;;;2.97;1.50;;;;;;;28.43;30.65;96933.41;5020808;28;20021;-28
2023/08/12 01:09:49;;;;;;;2.72;1.30;;;;;;;28.43;30.33;96927.84;5016027;28;20484;-29
2023/08/12 01:12:27;;;;;;;1.80;1.35;;;;;;;28.37;30.61;96932.75;5023221;28;20052;-29
2023/08/12 01:15:21;;;;;;;3.70;1.40;;;;;;;28.38;30.23;96931.47;5021297;28;20031;-29
2023/08/12 01:17:51;;;;;;;1.90;1.20;;;;;;;28.39;30.76;96938.56;5020132;28;20021;-29
2023/08/12 01:20:24;;;;;;;1.80;1.38;;;;;;;28.38;30.64;96937.03;5018180;28;20025;-29
2023/08/12 01:22:56;;;;;;;2.13;1.30;;;;;;;28.35;30.35;96927.69;5021753;28;20032;-30
2023/08/12 01:25:21;;;;;;;1.95;1.75;;;;;;;28.37;30.59;96927.91;5020771;28;20025;-29
2023/08/12 01:27:47;;;;;;;1.50;1.15;;;;;;;28.40;30.28;96929.66;5022783;28;20112;-28
2023/08/12 01:30:13;;;;;;;1.75;1.20;;;;;;;28.39;29.36;96932.97;5026972;28;20033;-30
2023/08/12 01:33:06;;;;;;;2.58;1.30;;;;;;;28.36;29.65;96934.78;5028005;28;20022;-30
2023/08/12 01:36:01;;;;;;;1.65;1.27;;;;;;;28.37;29.46;96927.16;5021202;28;20047;-28
2023/08/12 01:38:29;;;;;;;1.35;1.10;;;;;;;28.34;29.77;96925.44;5024191;28;20021;-29
2023/08/12 01:40:55;;;;;;;1.58;1.23;;;;;;;28.16;29.60;96916.59;5023636;28;20033;-30
2023/08/12 01:43:20;;;;;;;2.05;1.17;;;;;;;28.41;29.97;96913.66;5026361;28;20022;-29
2023/08/12 01:45:46;;;;;;;2.15;1.30;;;;;;;28.48;29.12;96918.59;5027002;28;20377;-28
2023/08/12 01:48:11;;;;;;;1.50;1.10;;;;;;;28.47;28.92;96926.22;5024677;28;20017;-29
2023/08/12 01:50:37;;;;;;;1.23;1.05;;;;;;;28.21;29.72;96918.56;5022186;28;20462;-28
2023/08/12 01:53:02;;;;;;;2.28;1.23;;;;;;;28.31;29.68;96926.53;5016551;28;20053;-28
2023/08/12 01:55:28;;;;;;;1.52;1.33;;;;;;;28.22;29.71;96922.84;5025716;28;20103;-29
2023/08/12 01:57:54;;;;;;;1.27;1.17;;;;;;;28.30;29.53;96920.19;5021500;28;20054;-28
2023/08/12 02:00:20;;;;;;;1.35;1.25;;;;;;;28.08;30.38;96914.94;5023580;28;20458;-29
2023/08/12 02:02:46;;;;;;;1.48;1.20;;;;;;;28.22;30.23;96916.50;5023142;28;20535;-28
2023/08/12 02:05:12;;;;;;;1.80;1.30;;;;;;;28.37;30.16;96918.81;5023163;28;20024;-28
2023/08/12 02:07:38;;;;;;;1.33;1.15;;;;;;;28.30;30.33;96911.84;5023616;28;20121;-29
2023/08/12 02:10:04;;;;;;;4.13;1.45;;;;;;;28.16;30.27;96911.03;5022880;28;20100;-29
2023/08/12 02:12:29;;;;;;;1.92;1.40;;;;;;;28.32;29.92;96912.03;5022160;28;20088;-29
2023/08/12 02:14:54;;;;;;;2.13;1.30;;;;;;;28.23;30.42;96910.41;5022795;28;20029;-30
2023/08/12 02:17:20;;;;;;;2.17;0.93;;;;;;;28.24;30.46;96916.75;5023014;28;20022;-28
2023/08/12 02:19:45;;;;;;;1.42;1.25;;;;;;;28.14;30.43;96910.03;5022385;28;20465;-28
2023/08/12 02:22:11;;;;;;;1.75;1.38;;;;;;;28.05;31.28;96911.22;5020155;28;20108;-29
2023/08/12 02:24:36;;;;;;;1.88;1.23;;;;;;;28.20;31.54;96905.88;5019189;28;20026;-28
2023/08/12 02:27:02;;;;;;;1.33;1.15;;;;;;;28.26;31.57;96910.63;5030029;28;20014;-29
2023/08/12 02:29:27;;;;;;;2.67;1.30;;;;;;;28.08;31.75;96904.56;5015542;28;20017;-28
2023/08/12 02:31:52;;;;;;;2.58;1.60;;;;;;;28.11;32.12;96911.84;5021315;28;20119;-28
2023/08/12 02:34:18;;;;;;;2.45;1.20;;;;;;;28.08;32.28;96912.91;5022794;28;20041;-29
2023/08/12 02:36:43;;;;;;;1.55;1.20;;;;;;;28.16;32.20;96916.59;5029424;28;20369;-29
2023/08/12 02:39:09;;;;;;;2.65;1.50;;;;;;;28.17;32.23;96911.78;5015927;28;20370;-29
2023/08/12 02:41:34;;;;;;;4.47;1.38;;;;;;;28.17;32.40;96906.94;5020681;28;20397;-28
2023/08/12 02:43:59;;;;;;;1.80;1.08;;;;;;;28.05;32.54;96904.88;5024571;28;20358;-30
2023/08/12 02:46:25;;;;;;;1.83;1.40;;;;;;;28.22;32.25;96903.31;5022441;28;20088;-29
2023/08/12 02:48:50;;;;;;;2.03;1.30;;;;;;;28.16;32.57;96902.66;5020961;28;20045;-29
2023/08/12 02:51:16;;;;;;;3.35;1.30;;;;;;;28.12;32.73;96909.81;5016846;28;20041;-28
2023/08/12 02:53:41;;;;;;;1.20;1.10;;;;;;;28.23;32.39;96896.47;5022381;28;20112;-31
2023/08/12 02:56:07;;;;;;;1.95;1.30;;;;;;;28.16;32.35;96904.69;5022652;28;20113;-29
2023/08/12 02:58:34;;;;;;;2.10;1.20;;;;;;;28.28;32.14;96891.34;5022441;28;20132;-28
2023/08/12 03:00:59;;;;;;;2.17;1.40;;;;;;;28.21;31.94;96896.25;5022412;28;20029;-28
2023/08/12 03:03:25;;;;;;;1.67;1.45;;;;;;;28.24;31.77;96895.19;5029547;28;20496;-28
2023/08/12 03:05:50;;;;;;;1.25;1.10;;;;;;;28.19;31.88;96893.22;5022415;28;20026;-28
2023/08/12 03:08:16;;;;;;;2.92;1.20;;;;;;;28.22;31.99;96892.16;5014960;28;20458;-29
2023/08/12 03:10:42;;;;;;;2.10;1.30;;;;;;;28.07;31.90;96891.88;5022467;28;20033;-28
2023/08/12 03:13:07;;;;;;;1.70;1.15;;;;;;;28.19;31.90;96893.22;5022374;28;20024;-28
2023/08/12 03:15:33;;;;;;;1.38;1.27;;;;;;;28.05;31.90;96894.47;5022248;28;20022;-28
2023/08/12 03:17:58;;;;;;;2.03;1.10;;;;;;;28.14;32.06;96893.31;5024757;28;20014;-28
2023/08/12 03:20:24;;;;;;;1.88;1.27;;;;;;;28.19;31.77;96892.47;5018844;28;20030;-29
2023/08/12 03:22:49;;;;;;;2.80;1.50;;;;;;;28.13;31.94;96884.19;5021916;28;20439;-29
2023/08/12 03:25:15;;;;;;;1.40;1.25;;;;;;;28.08;31.93;96895.44;5021967;28;20026;-29
2023/08/12 03:27:41;;;;;;;2.03;1.20;;;;;;;27.94;31.78;96893.91;5022098;28;20028;-29
2023/08/12 03:30:07;;;;;;;2.60;1.50;;;;;;;28.06;31.66;96895.25;5023849;28;20034;-29
2023/08/12 03:32:33;;;;;;;1.50;1.20;;;;;;;28.14;31.85;96896.09;5024458;28;20029;-28
2023/08/12 03:34:58;;;;;;;1.42;1.10;;;;;;;28.12;31.61;96895.88;5016214;28;20026;-28
2023/08/12 03:37:25;;;;;;;1.30;1.20;;;;;;;28.16;31.55;96899.88;5028504;28;20359;-29
2023/08/12 03:39:50;;;;;;;1.42;1.25;;;;;;;28.02;31.81;96889.97;5022174;28;20034;-28
2023/08/12 03:42:16;;;;;;;1.48;1.20;;;;;;;28.03;31.88;96897.03;5021776;28;20022;-29
2023/08/12 03:44:43;;;;;;;1.30;1.20;;;;;;;27.99;31.25;96902.19;5026797;28;20045;-28
2023/08/12 03:47:08;;;;;;;2.00;1.00;;;;;;;28.02;31.58;96901.13;5023056;28;20025;-29
2023/08/12 03:49:34;;;;;;;3.40;1.30;;;;;;;28.16;31.47;96905.44;5020877;28;20044;-29
2023/08/12 03:51:59;;;;;;;2.08;1.38;;;;;;;28.16;31.71;96904.69;5021305;28;20478;-29
2023/08/12 03:54:25;;;;;;;1.63;1.25;;;;;;;28.08;31.54;96906.59;5021605;28;20377;-28
2023/08/12 03:56:50;;;;;;;1.48;1.15;;;;;;;28.26;30.93;96907.84;5019290;28;20120;-30
2023/08/12 03:59:15;;;;;;;1.67;1.50;;;;;;;28.17;31.52;96918.09;5023621;28;20022;-29
2023/08/12 04:01:41;;;;;;;1.73;1.30;;;;;;;28.18;31.67;96910.53;5023804;28;20026;-30
2023/08/12 04:04:06;;;;;;;2.28;1.27;;;;;;;28.11;31.38;96914.66;5024136;28;20359;-29
2023/08/12 04:06:32;;;;;;;1.35;1.10;;;;;;;27.92;31.64;96908.38;5015727;28;20045;-29
2023/08/12 04:08:57;;;;;;;2.22;1.42;;;;;;;28.00;31.71;96914.09;5026272;28;20112;-30
2023/08/12 04:11:23;;;;;;;1.85;1.10;;;;;;;28.04;31.68;96909.72;5021069;28;20026;-28
2023/08/12 04:13:48;;;;;;;2.00;1.60;;;;;;;28.00;31.71;96909.25;5023183;28;20377;-29
2023/08/12 04:16:13;;;;;;;2.80;1.40;;;;;;;27.94;32.19;96916.97;5019126;28;20026;-28
2023/08/12 04:18:39;;;;;;;1.63;1.52;;;;;;;28.02;31.85;96911.53;5027984;28;20496;-30
2023/08/12 04:21:04;;;;;;;1.40;1.08;;;;;;;27.87;31.24;96918.34;5020948;28;20398;-28
2023/08/12 04:23:30;;;;;;;2.08;1.27;;;;;;;28.10;31.58;96912.38;5020544;28;20021;-28
2023/08/12 04:25:55;;;;;;;3.00;1.42;;;;;;;27.68;31.74;96914.09;5013064;28;20159;-28
2023/08/12 04:28:21;;;;;;;1.70;1.60;;;;;;;27.96;31.67;96913.63;5021307;28;20014;-28
2023/08/12 04:30:48;;;;;;;2.03;1.45;;;;;;;27.84;31.96;96918.63;5020591;28;20044;-28
2023/08/12 04:33:14;;;;;;;1.40;1.30;;;;;;;28.01;31.62;96907.97;5020991;28;20450;-28
2023/08/12 04:35:40;;;;;;;3.47;1.23;;;;;;;27.99;31.46;96912.56;5019635;28;20026;-29
2023/08/12 04:38:06;;;;;;;2.25;1.42;;;;;;;28.04;31.39;96904.13;5021710;28;20099;-29
2023/08/12 04:40:32;;;;;;;2.67;1.30;;;;;;;27.95;31.59;96909.34;5017908;28;20481;-29
2023/08/12 04:43:01;;;;;;;1.90;1.27;;;;;;;27.92;31.62;96913.22;5023805;28;20029;-29
2023/08/12 04:45:27;;;;;;;1.77;1.40;;;;;;;27.98;31.85;96906.25;5016803;28;20097;-30
2023/08/12 04:47:52;;;;;;;1.73;1.20;;;;;;;27.97;31.98;96910.31;5024267;28;20112;-28
2023/08/12 04:50:18;;;;;;;1.52;1.25;;;;;;;27.96;31.73;96911.59;5021509;28;20405;-28
2023/08/12 04:52:43;;;;;;;1.60;1.30;;;;;;;28.02;31.71;96917.09;5020418;28;20037;-28
2023/08/12 04:55:10;;;;;;;4.03;1.27;;;;;;;27.96;31.77;96911.59;5020142;28;20072;-29
2023/08/12 04:57:36;;;;;;;2.50;1.38;;;;;;;27.83;31.85;96917.13;5021148;28;20049;-29
2023/08/12 05:00:02;;;;;;;3.70;1.60;;;;;;;27.96;31.69;96917.16;5020100;28;20474;-30
2023/08/12 05:02:27;;;;;;;1.63;1.27;;;;;;;28.04;31.91;96923.66;5024096;28;20060;-29
2023/08/12 05:04:53;;;;;;;1.58;1.15;;;;;;;27.98;31.74;96922.22;5024319;28;20029;-29
2023/08/12 05:07:18;;;;;;;1.75;1.20;;;;;;;28.02;31.51;96917.84;5023993;28;20137;-28
2023/08/12 05:09:44;;;;;;;3.35;1.40;;;;;;;28.05;31.37;96919.56;5026438;28;20030;-28
2023/08/12 05:12:10;;;;;;;1.67;1.00;;;;;;;28.09;31.56;96922.03;5027950;28;20048;-30
2023/08/12 05:14:36;;;;;;;1.60;1.20;;;;;;;28.00;31.74;96922.44;5026636;28;20454;-29
2023/08/12 05:17:02;;;;;;;1.60;1.50;;;;;;;27.92;32.29;96919.53;5031250;28;20032;-29
2023/08/12 05:19:27;;;;;;;1.50;1.40;;;;;;;28.07;31.68;96922.56;5023782;28;20014;-29
2023/08/12 05:21:53;;;;;;;2.13;1.35;;;;;;;28.04;32.01;96926.44;5031097;28;20131;-28
2023/08/12 05:24:18;;;;;;;2.70;1.35;;;;;;;28.11;31.99;96925.78;5023858;28;20036;-29
2023/08/12 05:26:44;;;;;;;2.50;1.60;;;;;;;28.11;31.51;96923.00;5024546;28;20029;-28
2023/08/12 05:29:09;;;;;;;1.67;1.08;;;;;;;28.17;31.98;96932.06;5023742;28;20033;-30
2023/08/12 05:31:35;;;;;;;3.30;1.58;;;;;;;28.14;32.12;96929.56;5017520;28;20112;-28
2023/08/12 05:34:00;;;;;;;1.40;1.25;;;;;;;27.92;32.49;96927.16;5031213;28;20537;-28
2023/08/12 05:36:26;;;;;;;1.50;1.30;;;;;;;28.02;32.41;96928.25;5023777;28;20021;-31
2023/08/12 05:38:51;;;;;;;3.00;1.30;;;;;;;28.12;32.74;96923.75;5023813;28;20209;-29
2023/08/12 05:41:16;;;;;;;2.17;1.30;;;;;;;27.97;32.51;96923.50;5016549;28;20036;-29
2023/08/12 05:43:42;;;;;;;1.20;1.10;;;;;;;28.04;32.88;96925.69;5023969;28;20489;-29
2023/08/12 05:46:07;;;;;;;2.67;1.52;;;;;;;28.12;32.73;96927.31;5023859;28;20377;-28
2023/08/12 05:48:33;;;;;;;2.15;1.42;;;;;;;28.04;32.81;96932.00;5018424;28;20045;-29
2023/08/12 05:50:58;;;;;;;1.92;1.30;;;;;;;28.23;32.52;96924.34;5026586;28;20029;-28
2023/08/12 05:53:24;;;;;;;1.92;1.08;;;;;;;28.16;32.91;96927.75;5022631;28;20033;-29
2023/08/12 05:55:49;;;;;;;2.67;1.50;;;;;;;28.09;32.88;96925.56;5023513;28;20057;-28
2023/08/12 05:58:15;;;;;;;1.45;1.27;;;;;;;28.07;33.45;96925.34;5016279;28;20026;-29
2023/08/12 06:00:40;;;;;;;2.28;1.33;;;;;;;28.04;32.92;96929.22;5022574;28;20045;-30
2023/08/12 06:03:05;;;;;;;1.33;1.10;;;;;;;28.04;33.45;96932.00;5023792;28;20029;-29
2023/08/12 06:05:31;;;;;;;1.60;1.27;;;;;;;28.14;33.23;96937.94;5024476;28;20444;-28
2023/08/12 06:07:57;;;;;;;1.55;1.25;;;;;;;28.32;32.82;96944.75;5026487;28;20466;-28
2023/08/12 06:10:22;;;;;;;3.90;1.50;;;;;;;28.30;33.25;96931.34;5019130;28;20021;-29
2023/08/12 06:12:47;;;;;;;3.05;1.30;;;;;;;28.19;33.01;96937.84;5024578;28;20458;-28
2023/08/12 06:15:13;;;;;;;2.05;1.30;;;;;;;28.20;33.31;96942.16;5026359;28;20462;-29
2023/08/12 06:17:38;;;;;;;1.92;1.38;;;;;;;28.18;33.00;96936.38;5025333;28;20014;-29
2023/08/12 06:20:04;;;;;;;1.90;1.42;;;;;;;28.29;32.99;96940.25;5026602;28;20440;-28
2023/08/12 06:22:30;;;;;;;2.83;1.45;;;;;;;28.20;33.45;96944.94;5026872;28;20441;-28
2023/08/12 06:24:55;;;;;;;4.05;1.70;;;;;;;28.35;33.21;96943.69;5022672;28;20124;-28
2023/08/12 06:27:22;;;;;;;2.72;1.40;;;;;;;28.24;33.39;96944.63;5019067;28;20025;-28
2023/08/12 06:29:48;;;;;;;1.77;1.35;;;;;;;28.40;33.30;96945.63;5018376;28;20466;-28
2023/08/12 06:32:14;;;;;;;2.53;1.33;;;;;;;28.35;33.60;96940.91;5023338;28;20022;-28
2023/08/12 06:34:40;;;;;;;1.45;1.20;;;;;;;28.10;33.27;96941.03;5023695;28;20108;-29
2023/08/12 06:37:06;;;;;;;1.45;1.10;;;;;;;28.32;33.50;96939.91;5024210;28;20117;-29
2023/08/12 06:39:31;;;;;;;2.67;1.30;;;;;;;28.24;33.78;96939.06;5033179;28;20021;-28
2023/08/12 06:41:58;;;;;;;1.45;1.20;;;;;;;28.39;33.73;96944.13;5024957;28;20036;-28
2023/08/12 06:44:24;;;;;;;1.40;1.05;;;;;;;28.37;33.98;96941.13;5022770;28;20105;-30
2023/08/12 06:46:49;;;;;;;1.75;1.25;;;;;;;28.29;33.80;96934.69;5021827;28;20022;-28
2023/08/12 06:49:15;;;;;;;1.90;1.25;;;;;;;28.32;33.49;96939.91;5017084;28;20137;-28
2023/08/12 06:51:41;;;;;;;2.95;1.40;;;;;;;28.28;34.04;96933.16;5025579;28;20026;-28
2023/08/12 06:54:06;;;;;;;3.03;1.30;;;;;;;28.39;33.25;96944.88;5025040;28;20526;-28
2023/08/12 06:56:32;;;;;;;2.67;1.40;;;;;;;28.48;33.25;96935.34;5017661;28;20021;-28
2023/08/12 06:58:57;;;;;;;4.28;1.20;;;;;;;28.43;33.63;96936.22;5027313;28;20105;-28
2023/08/12 07:01:23;;;;;;;2.13;1.27;;;;;;;28.41;33.64;96933.19;5023141;28;20026;-28
2023/08/12 07:03:48;;;;;;;2.65;1.23;;;;;;;28.51;33.70;96935.03;5018338;28;20029;-28
2023/08/12 07:06:13;;;;;;;2.38;1.27;;;;;;;28.37;34.13;96927.91;5025826;28;20027;-29
2023/08/12 07:08:39;;;;;;;2.53;1.20;;;;;;;28.56;33.75;96931.38;5022686;28;20030;-28
2023/08/12 07:11:04;;;;;;;2.22;1.23;;;;;;;28.54;34.02;96922.81;5021052;28;20050;-29
2023/08/12 07:13:30;;;;;;;2.33;1.50;;;;;;;28.40;33.95;96934.47;5022017;28;20022;-28
2023/08/12 07:15:55;;;;;;;4.03;1.50;;;;;;;28.41;33.68;96933.19;5014777;28;20112;-29
2023/08/12 07:18:22;;;;;;;1.52;1.20;;;;;;;28.47;34.07;96939.41;5022552;28;20018;-28
2023/08/12 07:20:48;;;;;;;2.60;1.30;;;;;;;28.54;33.80;96941.59;5022089;28;20029;-29
2023/08/12 07:23:14;;;;;;;1.60;1.15;;;;;;;28.70;33.36;96934.16;5022288;28;20026;-29
2023/08/12 07:25:39;;;;;;;1.50;1.30;;;;;;;28.75;32.95;96938.91;5020965;28;20026;-28
2023/08/12 07:28:05;;;;;;;2.35;1.17;;;;;;;28.52;33.66;96946.94;5021917;28;20020;-28
2023/08/12 07:30:30;;;;;;;1.95;1.40;;;;;;;28.72;33.70;96940.72;5021747;28;20029;-28
2023/08/12 07:32:56;;;;;;;2.45;1.30;;;;;;;28.64;33.58;96942.66;5022132;28;20048;-29
2023/08/12 07:35:21;;;;;;;1.50;1.38;;;;;;;28.62;33.68;96934.06;5021646;28;20071;-28
2023/08/12 07:37:47;;;;;;;4.10;1.75;;;;;;;28.74;33.77;96943.72;5021623;28;20108;-30
2023/08/12 07:40:12;;;;;;;1.67;1.20;;;;;;;28.82;33.67;96941.06;5029022;28;20040;-29
2023/08/12 07:42:38;;;;;;;2.50;1.30;;;;;;;28.79;33.46;96934.53;5021350;28;20030;-28
2023/08/12 07:45:05;;;;;;;2.88;1.20;;;;;;;28.89;33.38;96935.59;5028897;28;20068;-29
2023/08/12 07:47:30;;;;;;;3.13;1.40;;;;;;;28.67;33.69;96938.06;5014416;28;20096;-29
2023/08/12 07:49:56;;;;;;;1.85;1.10;;;;;;;28.77;33.61;96937.09;5021346;28;20153;-28
2023/08/12 07:52:21;;;;;;;3.83;1.10;;;;;;;28.90;33.00;96937.13;5021961;28;20021;-28
2023/08/12 07:54:46;;;;;;;1.92;1.30;;;;;;;28.73;33.74;96939.44;5021604;28;20509;-28
2023/08/12 07:57:12;;;;;;;1.52;1.40;;;;;;;28.91;33.42;96933.03;5021123;28;20432;-29
2023/08/12 07:59:37;;;;;;;3.03;1.05;;;;;;;28.83;33.31;96940.53;5020229;28;20092;-28
2023/08/12 08:02:03;;;;;;;2.45;1.38;;;;;;;28.99;33.23;96932.38;5019806;28;20064;-28
2023/08/12 08:04:41;;;;;;;1.38;1.27;;;;;;;28.83;33.35;96934.94;5023308;28;20028;-29
2023/08/12 08:07:06;;;;;;;2.25;1.10;;;;;;;28.95;33.01;96932.69;5019279;28;20032;-28
2023/08/12 08:09:33;;;;;;;2.88;1.10;;;;;;;28.74;33.39;96932.56;5021317;28;20018;-29
2023/08/12 08:12:00;;;;;;;3.20;1.20;;;;;;;28.81;33.27;96934.72;5017753;28;20013;-28
2023/08/12 08:14:26;;;;;;;2.35;1.25;;;;;;;28.85;33.50;96940.75;5024184;28;20030;-28
2023/08/12 08:16:52;;;;;;;2.58;1.20;;;;;;;28.77;33.28;96934.28;5021302;28;20043;-28
2023/08/12 08:19:18;;;;;;;1.80;1.20;;;;;;;28.85;33.41;96940.75;5019556;28;20018;-28
2023/08/12 08:21:43;;;;;;;1.92;1.08;;;;;;;28.91;33.34;96941.41;5015842;28;20030;-28
2023/08/12 08:24:11;;;;;;;1.67;1.20;;;;;;;29.01;33.44;96940.97;5024220;28;20097;-28
2023/08/12 08:26:36;;;;;;;2.95;1.45;;;;;;;28.87;33.18;96935.41;5017068;28;20022;-28
2023/08/12 08:29:02;;;;;;;4.22;1.10;;;;;;;28.89;32.89;96935.59;5022029;28;20385;-28
2023/08/12 08:31:28;;;;;;;1.80;1.20;;;;;;;29.06;32.89;96940.09;5024025;28;20049;-28
2023/08/12 08:33:54;;;;;;;3.53;1.20;;;;;;;29.02;32.75;96940.44;5015252;28;20060;-28
2023/08/12 08:36:19;;;;;;;1.73;1.30;;;;;;;28.92;32.95;96934.53;5020935;28;20462;-28
2023/08/12 08:38:45;;;;;;;1.98;1.00;;;;;;;28.91;32.89;96941.41;5020751;28;20092;-29
2023/08/12 08:41:11;;;;;;;1.20;1.10;;;;;;;28.92;32.64;96950.53;5022704;28;20381;-29
2023/08/12 08:43:37;;;;;;;2.22;1.40;;;;;;;28.90;32.62;96937.13;5017800;28;20474;-28
2023/08/12 08:46:02;;;;;;;2.63;1.63;;;;;;;29.00;32.70;96936.66;5019717;28;20025;-29
2023/08/12 08:48:28;;;;;;;3.05;1.40;;;;;;;29.02;32.91;96939.69;5020407;28;20448;-29
2023/08/12 08:50:55;;;;;;;2.47;1.40;;;;;;;28.93;33.07;96935.28;5020042;28;20017;-28
2023/08/12 08:53:21;;;;;;;1.38;1.00;;;;;;;29.04;32.86;96934.31;5020754;28;20017;-28
2023/08/12 08:55:48;;;;;;;3.97;1.13;;;;;;;29.02;32.45;96937.66;5021019;28;20022;-28
2023/08/12 08:58:13;;;;;;;1.40;0.95;;;;;;;28.94;32.70;96942.34;5027733;28;20071;-29
2023/08/12 09:00:39;;;;;;;2.50;1.30;;;;;;;29.05;32.25;96941.41;5020545;28;20103;-28
2023/08/12 09:03:06;;;;;;;1.30;1.10;;;;;;;29.07;32.52;96938.81;5026541;28;20512;-30
2023/08/12 09:05:33;;;;;;;1.55;1.45;;;;;;;29.15;32.42;96940.44;5022230;28;20022;-28
2023/08/12 09:08:01;;;;;;;1.95;1.40;;;;;;;29.11;31.84;96936.44;5024819;28;20025;-30
2023/08/12 09:10:27;;;;;;;1.23;0.95;;;;;;;29.08;31.75;96938.28;5023400;28;20120;-29
2023/08/12 09:12:55;;;;;;;1.40;1.00;;;;;;;29.05;32.00;96935.81;5016455;28;20030;-29
2023/08/12 09:15:21;;;;;;;1.50;1.25;;;;;;;29.16;32.24;96930.00;5023735;28;20104;-30
2023/08/12 09:17:46;;;;;;;3.65;1.10;;;;;;;29.09;32.34;96939.78;5012815;28;20200;-28
2023/08/12 09:20:11;;;;;;;1.70;1.00;;;;;;;29.13;31.99;96942.25;5017803;28;20108;-28
2023/08/12 09:22:41;;;;;;;1.30;1.00;;;;;;;29.11;32.01;96934.41;5015742;28;20061;-28
2023/08/12 09:25:08;;;;;;;1.95;1.40;;;;;;;29.16;31.92;96935.59;5020825;28;20049;-30
2023/08/12 09:27:35;;;;;;;1.23;1.10;;;;;;;29.22;31.95;96928.59;5019632;28;20021;-28
2023/08/12 09:30:03;;;;;;;4.88;1.13;;;;;;;29.21;32.21;96921.50;5020578;28;20104;-29
2023/08/12 09:32:29;;;;;;;2.15;1.23;;;;;;;29.24;32.03;96930.84;5017005;28;20048;-30
2023/08/12 09:34:55;;;;;;;1.65;1.10;;;;;;;29.31;31.55;96930.16;5014855;28;20053;-28
2023/08/12 09:37:23;;;;;;;2.08;1.00;;;;;;;29.29;31.56;96932.78;5020063;28;20041;-30
2023/08/12 09:39:49;;;;;;;3.30;1.30;;;;;;;29.26;31.57;96928.25;5013139;28;20030;-28
2023/08/12 09:42:15;;;;;;;1.75;1.00;;;;;;;29.26;31.52;96931.06;5022001;28;20036;-28
2023/08/12 09:44:42;;;;;;;1.30;1.20;;;;;;;29.22;31.64;96930.63;5030492;28;20026;-28
2023/08/12 09:47:10;;;;;;;2.95;1.30;;;;;;;29.31;31.04;96922.53;5021891;28;20031;-28
2023/08/12 09:49:37;;;;;;;3.22;1.23;;;;;;;29.32;31.18;96917.72;5027247;28;20053;-28
2023/08/12 09:52:04;;;;;;;2.10;1.02;;;;;;;29.36;31.80;96914.59;5019579;28;20054;-30
2023/08/12 09:54:33;;;;;;;1.92;1.20;;;;;;;29.34;31.91;96911.56;5023834;28;20495;-28
2023/08/12 09:57:01;;;;;;;3.90;1.20;;;;;;;29.36;31.70;96915.34;5023327;28;20033;-28
2023/08/12 09:59:35;;;;;;;1.50;1.30;;;;;;;29.41;31.40;96913.75;5023601;28;20033;-28
2023/08/12 10:02:07;;;;;;;4.13;1.40;;;;;;;29.46;30.58;96913.63;5023165;28;20029;-28
2023/08/12 10:04:44;;;;;;;1.80;1.38;;;;;;;29.37;30.68;96914.06;5024126;28;20032;-28
2023/08/12 10:07:12;;;;;;;1.45;1.02;;;;;;;29.41;30.85;96911.72;5026340;28;20021;-28
2023/08/12 10:09:39;;;;;;;1.13;1.02;;;;;;;29.42;30.72;96910.44;5024913;28;20053;-28
2023/08/12 10:12:07;;;;;;;1.52;1.25;;;;;;;29.37;30.63;96916.84;5029431;28;20076;-28
2023/08/12 10:14:33;;;;;;;1.35;1.00;;;;;;;29.45;30.99;96908.56;5015924;28;20076;-28
2023/08/12 10:16:59;;;;;;;1.30;1.10;;;;;;;29.51;31.07;96915.53;5019113;28;20022;-28
2023/08/12 10:19:26;;;;;;;1.85;1.05;;;;;;;29.49;31.15;96912.53;5026409;28;20045;-29
2023/08/12 10:21:57;;;;;;;2.88;1.38;;;;;;;29.51;30.93;96915.53;5017584;28;20029;-28
2023/08/12 10:24:23;;;;;;;2.65;1.30;;;;;;;29.47;31.12;96909.53;5028091;28;20033;-30
2023/08/12 10:26:51;;;;;;;1.38;1.20;;;;;;;29.52;31.37;96908.66;5023003;28;20092;-28
2023/08/12 10:29:16;;;;;;;1.40;1.13;;;;;;;29.58;31.54;96909.28;5022676;28;20022;-28
2023/08/12 10:31:44;;;;;;;1.48;1.13;;;;;;;29.59;31.50;96894.00;5016187;28;20025;-28
2023/08/12 10:34:18;;;;;;;1.85;1.33;;;;;;;29.60;31.70;96887.13;5015770;28;20049;-28
2023/08/12 10:36:44;;;;;;;1.48;1.30;;;;;;;29.65;31.07;96896.69;5022806;28;20555;-28
2023/08/12 10:39:12;;;;;;;4.63;1.60;;;;;;;29.61;31.19;96890.69;5024463;28;20029;-30
2023/08/12 10:41:38;;;;;;;2.28;1.27;;;;;;;29.57;31.18;96885.41;5020732;28;20104;-30
2023/08/12 10:44:05;;;;;;;1.58;1.27;;;;;;;29.67;31.19;96882.16;5022474;28;20608;-28
2023/08/12 10:46:33;;;;;;;2.95;1.50;;;;;;;29.62;31.59;96884.53;5022512;28;20100;-28
2023/08/12 10:49:11;;;;;;;1.65;1.30;;;;;;;29.65;31.62;96875.06;5021065;28;20050;-29
2023/08/12 10:51:48;;;;;;;2.25;1.10;;;;;;;29.71;31.46;96876.97;5023191;28;20032;-28
2023/08/12 10:54:20;;;;;;;1.65;1.20;;;;;;;29.72;31.48;96867.28;5022202;28;20022;-28
2023/08/12 10:57:04;;;;;;;2.65;1.35;;;;;;;29.78;30.30;96873.53;5021572;28;20037;-28
2023/08/12 10:59:53;;;;;;;2.60;1.40;;;;;;;29.78;30.43;96870.72;5022535;28;20026;-31
2023/08/12 11:02:27;;;;;;;1.13;1.02;;;;;;;29.85;30.25;96878.41;5022289;28;20037;-28
2023/08/12 11:04:58;;;;;;;1.58;1.00;;;;;;;29.84;30.01;96874.13;5022392;28;20091;-29
2023/08/12 11:07:38;;;;;;;1.88;1.20;;;;;;;29.88;29.64;96875.28;5022236;28;20022;-28
2023/08/12 11:10:14;;;;;;;2.30;1.10;;;;;;;29.78;30.26;96871.47;5022163;28;20107;-28
2023/08/12 11:12:54;;;;;;;1.30;1.05;;;;;;;29.86;30.15;96866.69;5022432;28;20048;-28
2023/08/12 11:15:39;;;;;;;1.23;1.00;;;;;;;29.82;30.57;96876.69;5022075;28;20466;-29
2023/08/12 11:18:14;;;;;;;1.88;1.10;;;;;;;29.87;30.07;96878.63;5021810;28;20439;-29
2023/08/12 11:20:40;;;;;;;1.48;1.20;;;;;;;29.88;30.54;96868.94;5021451;28;20026;-29
2023/08/12 11:23:07;;;;;;;3.60;0.90;;;;;;;29.95;30.14;96862.66;5025090;28;20187;-29
2023/08/12 11:25:34;;;;;;;3.50;1.40;;;;;;;29.98;30.08;96861.59;5023859;28;20021;-28
2023/08/12 11:28:00;;;;;;;2.63;1.00;;;;;;;29.99;30.10;96858.25;5021907;28;20064;-28
2023/08/12 11:30:27;;;;;;;1.30;1.00;;;;;;;30.03;29.83;96865.56;5020214;28;20017;-28
2023/08/12 11:32:54;;;;;;;1.63;1.30;;;;;;;30.07;30.11;96852.72;5023729;28;20022;-29